Time;durP1;ratioP1;P1;durP2;ratioP2;P2;SDS_P1;SDS_P2;PMS_P1;PMS_P2;Temp;Humidity;BMP_temperature;BMP_pressure;BME280_temperature;BME280_humidity;BME280_pressure;Samples;Min_cycle;Max_cycle;Signal;HPM_P1;HPM_P2
2024/02/27 00:00:31;;;;;;;33.05;20.13;;;8.40;99.90;;;;;;4989358;28;20026;-48
2024/02/27 00:02:57;;;;;;;35.33;21.98;;;8.40;99.90;;;;;;4989353;28;20042;-54
2024/02/27 00:05:25;;;;;;;31.50;20.45;;;8.40;99.90;;;;;;4989399;28;20031;-53
2024/02/27 00:07:50;;;;;;;28.45;21.38;;;8.40;99.90;;;;;;4987960;28;20045;-50
2024/02/27 00:10:16;;;;;;;32.15;20.95;;;8.40;99.90;;;;;;4987665;28;20064;-48
2024/02/27 00:12:42;;;;;;;31.08;21.13;;;8.40;99.90;;;;;;4989568;28;20110;-56
2024/02/27 00:15:08;;;;;;;33.90;21.20;;;8.30;99.90;;;;;;4988464;28;20034;-56
2024/02/27 00:17:33;;;;;;;34.78;21.35;;;8.30;99.90;;;;;;4988851;28;20113;-56
2024/02/27 00:19:59;;;;;;;34.22;23.60;;;8.30;99.90;;;;;;4989161;28;20018;-52
2024/02/27 00:22:24;;;;;;;41.10;25.08;;;8.30;99.90;;;;;;4989247;28;20336;-54
2024/02/27 00:24:50;;;;;;;37.63;22.60;;;8.30;99.90;;;;;;4987618;28;20042;-51
2024/02/27 00:27:15;;;;;;;35.75;22.20;;;8.40;99.90;;;;;;4989271;28;20096;-49
2024/02/27 00:29:41;;;;;;;34.13;22.42;;;8.40;99.90;;;;;;4989291;28;20241;-48
2024/02/27 00:32:06;;;;;;;34.10;22.75;;;8.30;99.90;;;;;;4987740;28;20034;-52
2024/02/27 00:34:32;;;;;;;35.25;22.67;;;8.30;99.90;;;;;;4989043;28;20045;-52
2024/02/27 00:36:57;;;;;;;34.75;23.17;;;8.30;99.90;;;;;;4989153;28;20090;-55
2024/02/27 00:39:23;;;;;;;39.05;24.60;;;8.30;99.90;;;;;;4987590;28;20015;-52
2024/02/27 00:41:49;;;;;;;38.78;23.85;;;8.40;99.90;;;;;;4987745;28;20046;-52
2024/02/27 00:44:15;;;;;;;36.58;23.60;;;8.40;99.90;;;;;;4989344;28;20023;-54
2024/02/27 00:46:44;;;;;;;34.97;23.20;;;8.30;99.90;;;;;;4988828;28;20058;-53
2024/02/27 00:49:09;;;;;;;37.35;23.55;;;8.40;99.90;;;;;;4987677;28;20031;-50
2024/02/27 00:51:35;;;;;;;33.50;24.45;;;8.40;99.90;;;;;;4987632;28;20072;-50
2024/02/27 00:54:00;;;;;;;34.97;24.40;;;8.40;99.90;;;;;;4987286;28;20554;-53
2024/02/27 00:56:26;;;;;;;33.65;22.65;;;8.30;99.90;;;;;;4987282;28;20117;-51
2024/02/27 00:58:51;;;;;;;35.17;23.33;;;8.30;99.90;;;;;;4987690;28;20080;-56
2024/02/27 01:01:17;;;;;;;31.60;23.20;;;8.30;99.90;;;;;;4987404;28;20042;-54
2024/02/27 01:03:43;;;;;;;39.92;24.88;;;8.20;99.90;;;;;;4991126;28;20034;-55
2024/02/27 01:06:08;;;;;;;37.28;24.50;;;8.20;99.90;;;;;;4991400;28;20093;-57
2024/02/27 01:08:34;;;;;;;34.97;22.67;;;8.20;99.90;;;;;;4992587;28;20053;-55
2024/02/27 01:10:59;;;;;;;35.25;23.65;;;8.20;99.90;;;;;;4992334;28;20553;-53
2024/02/27 01:13:25;;;;;;;33.72;23.55;;;8.20;99.90;;;;;;4992416;28;20038;-52
2024/02/27 01:15:50;;;;;;;33.65;23.13;;;8.20;99.90;;;;;;4991097;28;20062;-54
2024/02/27 01:18:16;;;;;;;37.90;23.55;;;8.20;99.90;;;;;;4990970;28;20014;-52
2024/02/27 01:20:41;;;;;;;31.65;22.65;;;8.30;99.90;;;;;;4991237;28;20152;-50
2024/02/27 01:23:07;;;;;;;30.77;20.75;;;8.20;99.90;;;;;;4993123;28;20457;-55
2024/02/27 01:25:32;;;;;;;32.42;21.83;;;8.30;99.90;;;;;;4993813;28;20027;-49
2024/02/27 01:27:58;;;;;;;35.58;23.58;;;8.30;99.90;;;;;;4993883;28;20029;-54
2024/02/27 01:30:23;;;;;;;34.17;23.67;;;8.30;99.90;;;;;;4995289;28;20034;-48
2024/02/27 01:32:49;;;;;;;31.17;22.55;;;8.30;99.90;;;;;;4995386;28;20026;-52
2024/02/27 01:35:18;;;;;;;35.15;22.90;;;8.30;99.90;;;;;;4995539;28;20034;-52
2024/02/27 01:37:44;;;;;;;32.65;21.48;;;8.30;99.90;;;;;;4995218;28;20018;-49
2024/02/27 01:40:10;;;;;;;32.60;22.98;;;8.30;99.90;;;;;;4993783;28;20438;-53
2024/02/27 01:42:36;;;;;;;35.40;22.42;;;8.30;99.90;;;;;;4995091;28;20026;-49
2024/02/27 01:45:03;;;;;;;29.70;20.60;;;8.30;99.90;;;;;;4995132;28;20027;-52
2024/02/27 01:47:29;;;;;;;32.58;20.05;;;8.30;99.90;;;;;;4995007;28;20410;-53
2024/02/27 01:49:55;;;;;;;36.97;23.10;;;;;;;;;;4995019;28;20097;-50
2024/02/27 01:52:24;;;;;;;32.80;21.05;;;8.10;99.90;;;;;;4994779;28;20026;-49
2024/02/27 01:54:51;;;;;;;25.95;19.73;;;8.30;99.90;;;;;;4993440;28;20026;-50
2024/02/27 01:57:20;;;;;;;34.00;22.55;;;8.60;99.90;;;;;;4994618;28;20025;-51
2024/02/27 01:59:46;;;;;;;32.00;21.73;;;8.40;99.90;;;;;;4994672;28;20101;-51
2024/02/27 02:02:13;;;;;;;34.00;21.63;;;8.20;99.90;;;;;;4994729;28;20197;-53
2024/02/27 02:04:38;;;;;;;31.23;22.45;;;8.40;99.90;;;;;;4994593;28;20458;-50
2024/02/27 02:07:04;;;;;;;32.45;22.30;;;8.40;99.90;;;;;;4994416;28;20054;-50
2024/02/27 02:09:30;;;;;;;36.78;22.90;;;8.40;99.90;;;;;;4994499;28;20035;-54
2024/02/27 02:11:56;;;;;;;29.25;20.42;;;8.40;99.90;;;;;;4995184;28;20057;-51
2024/02/27 02:14:21;;;;;;;33.25;21.77;;;8.40;99.90;;;;;;4993414;28;20422;-50
2024/02/27 02:16:47;;;;;;;35.80;20.80;;;8.30;99.90;;;;;;4994431;28;20486;-52
2024/02/27 02:19:13;;;;;;;34.58;21.60;;;8.30;99.90;;;;;;4993173;28;20061;-50
2024/02/27 02:21:38;;;;;;;32.28;21.40;;;8.40;99.90;;;;;;4994266;28;20026;-52
2024/02/27 02:24:05;;;;;;;33.58;21.95;;;8.30;99.90;;;;;;4993035;28;20026;-54
2024/02/27 02:26:31;;;;;;;33.45;22.35;;;8.30;99.90;;;;;;4994078;28;20034;-50
2024/02/27 02:28:58;;;;;;;33.65;21.85;;;8.30;99.90;;;;;;4994277;28;20026;-51
2024/02/27 02:31:23;;;;;;;29.33;20.90;;;8.20;99.90;;;;;;4994220;28;20029;-53
2024/02/27 02:33:49;;;;;;;32.97;21.17;;;8.30;99.90;;;;;;4994136;28;20478;-50
2024/02/27 02:36:15;;;;;;;31.63;20.50;;;8.30;99.90;;;;;;4994019;28;20504;-49
2024/02/27 02:38:41;;;;;;;31.00;21.40;;;8.30;99.90;;;;;;4992705;28;20504;-52
2024/02/27 02:41:06;;;;;;;33.75;21.05;;;8.20;99.90;;;;;;4993901;28;20026;-53
2024/02/27 02:43:32;;;;;;;29.77;22.55;;;8.20;99.90;;;;;;4993991;28;20514;-49
2024/02/27 02:45:57;;;;;;;27.92;19.52;;;8.60;99.90;;;;;;4993923;28;20109;-52
2024/02/27 02:48:23;;;;;;;31.10;20.25;;;8.20;99.90;;;;;;4993838;28;20028;-56
2024/02/27 02:50:48;;;;;;;28.38;19.92;;;8.00;99.90;;;;;;4992421;28;20030;-51
2024/02/27 02:53:14;;;;;;;31.30;21.10;;;8.20;99.90;;;;;;4993734;28;20038;-47
2024/02/27 02:55:42;;;;;;;28.95;20.67;;;8.10;99.90;;;;;;4993730;28;20558;-53
2024/02/27 02:58:08;;;;;;;33.10;20.58;;;7.80;99.90;;;;;;4993901;28;20109;-51
2024/02/27 03:00:34;;;;;;;28.52;20.15;;;8.10;99.90;;;;;;4994055;28;20026;-54
2024/02/27 03:02:59;;;;;;;30.85;20.58;;;8.10;99.90;;;;;;4993636;28;20026;-56
2024/02/27 03:05:25;;;;;;;29.35;20.42;;;8.10;99.90;;;;;;4993860;28;20029;-51
2024/02/27 03:07:50;;;;;;;29.42;19.45;;;8.10;99.90;;;;;;4993730;28;20058;-50
2024/02/27 03:10:16;;;;;;;33.97;20.42;;;7.90;99.90;;;;;;4992075;28;20027;-54
2024/02/27 03:12:43;;;;;;;30.65;20.40;;;8.10;99.90;;;;;;4993647;28;20030;-51
2024/02/27 03:15:09;;;;;;;30.73;20.60;;;8.00;99.90;;;;;;4993272;28;20574;-50
2024/02/27 03:17:34;;;;;;;29.35;19.33;;;7.90;99.90;;;;;;4993250;28;20113;-50
2024/02/27 03:20:00;;;;;;;27.90;19.17;;;8.00;99.90;;;;;;4993156;28;20033;-51
2024/02/27 03:22:25;;;;;;;28.00;18.63;;;7.90;99.90;;;;;;4993306;28;20505;-50
2024/02/27 03:24:51;;;;;;;31.83;20.25;;;7.90;99.90;;;;;;4991934;28;20030;-51
2024/02/27 03:27:16;;;;;;;24.95;17.58;;;7.90;99.90;;;;;;5008583;28;20034;-51
2024/02/27 03:29:42;;;;;;;27.63;18.60;;;7.70;99.90;;;;;;4991897;28;20102;-56
2024/02/27 03:32:07;;;;;;;25.90;18.60;;;7.80;99.90;;;;;;4993075;28;20506;-52
2024/02/27 03:34:34;;;;;;;27.17;19.40;;;7.80;99.90;;;;;;4992686;28;20482;-53
2024/02/27 03:37:00;;;;;;;26.67;19.13;;;8.00;99.90;;;;;;4992863;28;20547;-53
2024/02/27 03:39:26;;;;;;;31.30;18.92;;;7.70;99.90;;;;;;4992874;28;20026;-53
2024/02/27 03:41:51;;;;;;;27.42;19.08;;;7.70;99.90;;;;;;4992884;28;20022;-53
2024/02/27 03:44:17;;;;;;;27.08;19.77;;;7.70;99.90;;;;;;4992690;28;20117;-54
2024/02/27 03:46:42;;;;;;;29.38;20.00;;;7.70;99.90;;;;;;4992753;28;20026;-50
2024/02/27 03:49:08;;;;;;;26.02;18.98;;;7.70;99.90;;;;;;4992716;28;20057;-51
2024/02/27 03:51:33;;;;;;;25.75;19.73;;;7.60;99.90;;;;;;4992712;28;20034;-50
2024/02/27 03:53:59;;;;;;;28.13;18.42;;;7.70;99.90;;;;;;4991251;28;20464;-55
2024/02/27 03:56:24;;;;;;;33.25;20.67;;;7.60;99.90;;;;;;4992493;28;20022;-46
2024/02/27 03:58:50;;;;;;;30.15;19.38;;;7.60;99.90;;;;;;4993206;28;20035;-49
2024/02/27 04:01:16;;;;;;;31.08;20.08;;;7.50;99.90;;;;;;4992598;28;20544;-52
2024/02/27 04:03:43;;;;;;;28.48;19.42;;;7.60;99.90;;;;;;4992462;28;20027;-55
2024/02/27 04:06:08;;;;;;;31.40;21.80;;;7.60;99.90;;;;;;4992659;28;20120;-52
2024/02/27 04:08:34;;;;;;;29.55;20.83;;;7.60;99.90;;;;;;4992395;28;20054;-53
2024/02/27 04:10:59;;;;;;;27.88;19.48;;;7.40;99.90;;;;;;4992227;28;20042;-50
2024/02/27 04:13:25;;;;;;;31.55;18.30;;;7.40;99.90;;;;;;4992357;28;20505;-50
2024/02/27 04:15:50;;;;;;;29.02;19.05;;;7.40;99.90;;;;;;4992289;28;20053;-50
2024/02/27 04:18:16;;;;;;;30.70;20.65;;;7.30;99.90;;;;;;4990733;28;20038;-53
2024/02/27 04:20:43;;;;;;;32.88;20.95;;;7.30;99.90;;;;;;4992216;28;20109;-50
2024/02/27 04:23:09;;;;;;;33.60;19.48;;;7.30;99.90;;;;;;4992266;28;20149;-55
2024/02/27 04:25:35;;;;;;;31.90;20.30;;;7.30;99.90;;;;;;4992010;28;20023;-51
2024/02/27 04:28:01;;;;;;;32.38;20.05;;;7.20;99.90;;;;;;4991990;28;20437;-53
2024/02/27 04:30:26;;;;;;;31.67;20.30;;;7.30;99.90;;;;;;4992232;28;20098;-55
2024/02/27 04:32:52;;;;;;;31.35;20.05;;;7.30;99.90;;;;;;4990983;28;20026;-51
2024/02/27 04:35:17;;;;;;;27.95;18.98;;;7.20;99.90;;;;;;4991918;28;20034;-53
2024/02/27 04:37:43;;;;;;;31.58;20.60;;;7.20;99.90;;;;;;4991695;28;20029;-54
2024/02/27 04:40:09;;;;;;;30.35;20.33;;;7.20;99.90;;;;;;4992017;28;20482;-51
2024/02/27 04:42:34;;;;;;;33.05;19.10;;;7.20;99.90;;;;;;4992080;28;20030;-48
2024/02/27 04:45:00;;;;;;;28.17;19.52;;;7.20;99.90;;;;;;4991870;28;20033;-48
2024/02/27 04:47:26;;;;;;;29.75;19.67;;;7.10;99.90;;;;;;4991955;28;20061;-51
2024/02/27 04:49:51;;;;;;;32.70;19.27;;;7.10;99.90;;;;;;4992060;28;20026;-51
2024/02/27 04:52:17;;;;;;;31.48;20.27;;;7.10;99.90;;;;;;4992134;28;20066;-52
2024/02/27 04:54:42;;;;;;;30.65;20.35;;;7.20;99.90;;;;;;4991875;28;20030;-52
2024/02/27 04:57:08;;;;;;;28.73;18.27;;;7.20;99.90;;;;;;4991935;28;20026;-49
2024/02/27 04:59:35;;;;;;;31.35;20.27;;;7.20;99.90;;;;;;4991995;28;20478;-50
2024/02/27 05:02:00;;;;;;;30.20;19.25;;;7.20;99.90;;;;;;4991878;28;20050;-48
2024/02/27 05:04:26;;;;;;;29.90;19.52;;;7.20;99.90;;;;;;4991934;28;20449;-49
2024/02/27 05:06:51;;;;;;;30.55;18.13;;;7.20;99.90;;;;;;4991762;28;20398;-47
2024/02/27 05:09:17;;;;;;;30.33;18.80;;;7.10;99.90;;;;;;4991993;28;20505;-46
2024/02/27 05:11:44;;;;;;;26.55;18.10;;;7.20;99.90;;;;;;4991746;28;20462;-48
2024/02/27 05:14:10;;;;;;;32.53;19.80;;;7.10;99.90;;;;;;4991632;28;20026;-47
2024/02/27 05:16:37;;;;;;;29.02;19.42;;;7.10;99.90;;;;;;4991614;28;20076;-47
2024/02/27 05:19:02;;;;;;;26.55;17.58;;;7.00;99.90;;;;;;4991820;28;20491;-54
2024/02/27 05:21:28;;;;;;;29.85;19.40;;;7.00;99.90;;;;;;4991611;28;20055;-52
2024/02/27 05:23:53;;;;;;;28.58;19.60;;;7.00;99.90;;;;;;4991342;28;20040;-46
2024/02/27 05:26:19;;;;;;;34.03;18.10;;;7.00;99.90;;;;;;4991589;28;20026;-48
2024/02/27 05:28:44;;;;;;;29.98;19.83;;;6.90;99.90;;;;;;4991550;28;20057;-52
2024/02/27 05:31:26;;;;;;;28.58;20.13;;;6.90;99.90;;;;;;4991575;28;20516;-47
2024/02/27 05:33:52;;;;;;;28.98;18.73;;;6.90;99.90;;;;;;4991323;28;20113;-48
2024/02/27 05:36:19;;;;;;;27.95;19.35;;;6.80;99.90;;;;;;4991598;28;20081;-49
2024/02/27 05:38:44;;;;;;;30.33;19.48;;;6.80;99.90;;;;;;4991355;28;20347;-48
2024/02/27 05:41:10;;;;;;;29.98;20.13;;;6.80;99.90;;;;;;4991713;28;20025;-51
2024/02/27 05:43:36;;;;;;;31.35;20.48;;;6.70;99.90;;;;;;4991814;28;20038;-50
2024/02/27 05:46:05;;;;;;;35.17;20.85;;;6.80;99.90;;;;;;4991540;28;20089;-54
2024/02/27 05:48:33;;;;;;;28.23;18.65;;;6.70;99.90;;;;;;4991830;28;20414;-51
2024/02/27 05:51:00;;;;;;;31.48;18.52;;;;;;;;;;4995650;28;20184;-49
2024/02/27 05:53:26;;;;;;;32.03;19.42;;;;;;;;;;4994790;28;20125;-49
2024/02/27 05:55:52;;;;;;;29.25;18.50;;;;;;;;;;4994755;28;20318;-48
2024/02/27 05:58:19;;;;;;;31.95;19.48;;;;;;;;;;4994659;28;20309;-48
2024/02/27 06:00:45;;;;;;;28.85;19.60;;;;;;;;;;4994839;28;20051;-50
2024/02/27 06:03:11;;;;;;;31.02;20.05;;;;;;;;;;4994221;28;20022;-52
2024/02/27 06:05:37;;;;;;;30.80;19.08;;;;;;;;;;4994775;28;20033;-48
2024/02/27 06:08:03;;;;;;;27.23;18.42;;;6.90;99.90;;;;;;4994575;28;20406;-49
2024/02/27 06:10:28;;;;;;;32.80;19.73;;;6.80;99.90;;;;;;4994545;28;20026;-50
2024/02/27 06:12:54;;;;;;;28.85;18.63;;;6.80;99.90;;;;;;4994577;28;20069;-47
2024/02/27 06:15:19;;;;;;;28.60;18.50;;;6.70;99.90;;;;;;4994226;28;20030;-46
2024/02/27 06:17:45;;;;;;;28.98;19.17;;;6.70;99.90;;;;;;4994950;28;20053;-52
2024/02/27 06:22:10;;;;;;;35.17;19.92;;;6.70;99.90;;;;;;4994335;28;20026;-56
2024/02/27 06:22:56;;;;;;;29.20;19.38;;;6.60;99.90;;;;;;4994290;28;20425;-49
2024/02/27 06:25:22;;;;;;;29.88;18.10;;;6.50;99.90;;;;;;4993815;28;20096;-49
2024/02/27 06:27:48;;;;;;;32.30;19.75;;;6.50;99.90;;;;;;4994027;28;20026;-52
2024/02/27 06:30:15;;;;;;;29.65;19.42;;;6.50;99.90;;;;;;4994107;28;20026;-51
2024/02/27 06:32:41;;;;;;;31.58;18.73;;;6.40;99.90;;;;;;4994228;28;20509;-56
2024/02/27 06:35:09;;;;;;;28.08;18.80;;;6.40;99.90;;;;;;4993806;28;20035;-53
2024/02/27 06:37:34;;;;;;;28.60;18.15;;;6.40;99.90;;;;;;4993882;28;20018;-48
2024/02/27 06:40:00;;;;;;;31.33;18.35;;;6.40;99.90;;;;;;4994010;28;20031;-50
2024/02/27 06:42:26;;;;;;;31.05;19.70;;;6.40;99.90;;;;;;4994184;28;20019;-52
2024/02/27 06:44:51;;;;;;;28.35;17.52;;;6.40;99.90;;;;;;4993884;28;20057;-56
2024/02/27 06:47:17;;;;;;;29.17;18.45;;;6.40;99.90;;;;;;4993714;28;20038;-54
2024/02/27 06:49:43;;;;;;;28.35;19.27;;;6.40;99.90;;;;;;4993967;28;20093;-52
2024/02/27 06:52:09;;;;;;;34.80;18.90;;;6.40;99.90;;;;;;4993694;28;20182;-51
2024/02/27 06:54:34;;;;;;;27.58;18.60;;;6.40;99.90;;;;;;4993569;28;20043;-53
2024/02/27 06:57:00;;;;;;;30.48;19.42;;;6.40;99.90;;;;;;4993614;28;20438;-52
2024/02/27 06:59:26;;;;;;;31.48;18.60;;;6.50;99.90;;;;;;4993361;28;20489;-56
2024/02/27 07:01:51;;;;;;;27.50;17.20;;;6.50;99.90;;;;;;4993665;28;20023;-49
2024/02/27 07:04:17;;;;;;;26.30;17.83;;;6.50;99.90;;;;;;4993551;28;20109;-47
2024/02/27 07:06:43;;;;;;;29.90;17.83;;;6.50;99.90;;;;;;4993403;28;20105;-53
2024/02/27 07:09:09;;;;;;;24.08;17.52;;;6.60;99.90;;;;;;4993223;28;20081;-54
2024/02/27 07:11:35;;;;;;;26.48;17.27;;;6.70;99.90;;;;;;4993436;28;20034;-50
2024/02/27 07:14:01;;;;;;;22.83;16.38;;;7.00;99.90;;;;;;4993373;28;20088;-51
2024/02/27 07:16:27;;;;;;;24.25;16.63;;;7.20;99.90;;;;;;4993272;28;20022;-53
2024/02/27 07:18:52;;;;;;;30.58;17.50;;;7.40;99.90;;;;;;4993732;28;20111;-48
2024/02/27 07:21:18;;;;;;;24.88;16.50;;;7.40;99.90;;;;;;4993183;28;20018;-49
2024/02/27 07:23:44;;;;;;;24.48;15.50;;;7.30;99.90;;;;;;4993384;28;20030;-50
2024/02/27 07:26:10;;;;;;;27.45;15.80;;;7.30;99.90;;;;;;4992986;28;20113;-48
2024/02/27 07:28:35;;;;;;;21.58;15.70;;;7.20;99.90;;;;;;4993333;28;20375;-52
2024/02/27 07:31:01;;;;;;;30.00;16.85;;;7.10;99.90;;;;;;4993188;28;20027;-52
2024/02/27 07:33:26;;;;;;;24.98;17.05;;;7.10;99.90;;;;;;4993015;28;20089;-51
2024/02/27 07:35:52;;;;;;;26.67;17.60;;;7.00;99.90;;;;;;4993034;28;20018;-53
2024/02/27 07:38:18;;;;;;;28.77;17.42;;;7.00;99.90;;;;;;4992863;28;20019;-50
2024/02/27 07:40:43;;;;;;;23.63;15.65;;;7.00;99.90;;;;;;4992810;28;20018;-53
2024/02/27 07:43:09;;;;;;;24.92;16.35;;;6.90;99.90;;;;;;4992611;28;20482;-51
2024/02/27 07:45:35;;;;;;;24.60;15.50;;;7.00;99.90;;;;;;4992687;28;20505;-51
2024/02/27 07:48:01;;;;;;;25.17;17.00;;;7.00;99.90;;;;;;4992630;28;20033;-50
2024/02/27 07:50:27;;;;;;;31.48;16.92;;;7.10;99.90;;;;;;4992738;28;20034;-51
2024/02/27 07:52:52;;;;;;;23.38;16.20;;;7.20;99.90;;;;;;4992811;28;20073;-51
2024/02/27 07:55:18;;;;;;;25.70;16.52;;;7.20;99.90;;;;;;4992647;28;20042;-55
2024/02/27 07:57:43;;;;;;;23.15;15.88;;;7.20;99.90;;;;;;4992549;28;20034;-48
2024/02/27 08:00:09;;;;;;;22.63;16.17;;;7.20;99.90;;;;;;4992453;28;20069;-53
2024/02/27 08:02:38;;;;;;;23.50;15.70;;;7.20;99.90;;;;;;4992710;28;20388;-54
2024/02/27 08:05:04;;;;;;;26.75;16.15;;;7.30;99.90;;;;;;4992434;28;20027;-53
2024/02/27 08:07:31;;;;;;;27.30;16.33;;;7.40;99.90;;;;;;4992349;28;20045;-51
2024/02/27 08:10:03;;;;;;;25.00;16.83;;;7.40;99.90;;;;;;4991796;28;20026;-54
2024/02/27 08:12:28;;;;;;;27.10;15.90;;;7.50;99.90;;;;;;4990923;28;20023;-56
2024/02/27 08:14:54;;;;;;;26.60;16.65;;;7.60;99.90;;;;;;4991855;28;20033;-49
2024/02/27 08:17:19;;;;;;;25.95;16.45;;;7.60;99.90;;;;;;4992366;28;20030;-52
2024/02/27 08:19:45;;;;;;;23.83;16.27;;;7.70;99.90;;;;;;4991627;28;20081;-54
2024/02/27 08:22:11;;;;;;;31.10;16.40;;;7.60;99.90;;;;;;4990546;28;20018;-50
2024/02/27 08:24:36;;;;;;;24.75;16.30;;;7.70;99.90;;;;;;4991559;28;20049;-52
2024/02/27 08:27:03;;;;;;;27.25;16.80;;;;;;;;;;4991532;28;20038;-49
2024/02/27 08:29:28;;;;;;;27.30;15.77;;;7.80;99.90;;;;;;4991924;28;20018;-50
2024/02/27 08:31:54;;;;;;;27.58;16.20;;;7.80;99.90;;;;;;4992182;28;20040;-49
2024/02/27 08:34:19;;;;;;;29.95;16.95;;;7.80;99.90;;;;;;4990789;28;20486;-48
2024/02/27 08:36:45;;;;;;;30.33;17.23;;;7.90;99.90;;;;;;4992004;28;20088;-51
2024/02/27 08:39:11;;;;;;;25.38;15.80;;;8.00;99.90;;;;;;4992439;28;20069;-53
2024/02/27 08:41:36;;;;;;;25.95;16.20;;;8.10;99.90;;;;;;4992460;28;20045;-51
2024/02/27 08:44:02;;;;;;;24.77;15.65;;;8.20;99.90;;;;;;4990703;28;20073;-54
2024/02/27 08:46:27;;;;;;;27.73;17.77;;;8.20;99.90;;;;;;4991871;28;20117;-49
2024/02/27 08:48:53;;;;;;;27.52;16.27;;;8.30;99.90;;;;;;4991741;28;20467;-49
2024/02/27 08:51:18;;;;;;;30.67;17.02;;;8.30;99.90;;;;;;4991990;28;20101;-53
2024/02/27 08:53:44;;;;;;;25.60;16.63;;;8.30;99.90;;;;;;4991886;28;20391;-52
2024/02/27 08:56:09;;;;;;;30.35;15.77;;;8.30;99.90;;;;;;4991960;28;20482;-51
2024/02/27 08:58:36;;;;;;;24.15;16.02;;;8.40;99.90;;;;;;4991858;28;20497;-51
2024/02/27 09:01:02;;;;;;;22.55;15.05;;;8.50;99.90;;;;;;4991993;28;20509;-52
2024/02/27 09:03:28;;;;;;;26.00;15.95;;;8.50;99.90;;;;;;5015351;28;20034;-51
2024/02/27 09:05:54;;;;;;;23.13;14.75;;;8.70;99.90;;;;;;5011407;28;20018;-51
2024/02/27 09:08:20;;;;;;;23.27;13.93;;;8.70;99.90;;;;;;5002319;28;20089;-51
2024/02/27 09:10:46;;;;;;;27.83;16.52;;;8.80;99.90;;;;;;4990646;28;20054;-55
2024/02/27 09:13:11;;;;;;;22.25;14.40;;;8.90;99.90;;;;;;4991684;28;20520;-53
2024/02/27 09:15:37;;;;;;;29.35;15.25;;;9.00;99.90;;;;;;4991947;28;20034;-53
2024/02/27 09:18:03;;;;;;;24.23;14.73;;;9.20;99.90;;;;;;5010442;28;20022;-47
2024/02/27 09:20:31;;;;;;;22.95;14.73;;;9.00;99.90;;;;;;5009711;28;20054;-51
2024/02/27 09:22:57;;;;;;;20.30;14.90;;;9.10;99.90;;;;;;5006403;28;20026;-53
2024/02/27 09:25:23;;;;;;;19.33;14.63;;;9.10;99.90;;;;;;4996958;28;20463;-51
2024/02/27 09:27:48;;;;;;;21.45;13.13;;;9.20;99.90;;;;;;5014459;28;20153;-50
2024/02/27 09:30:14;;;;;;;20.75;12.70;;;9.20;99.90;;;;;;5014558;28;20548;-55
2024/02/27 09:32:39;;;;;;;29.85;12.13;;;9.40;99.90;;;;;;5010783;28;20069;-58
2024/02/27 09:35:07;;;;;;;18.73;12.52;;;10.20;99.90;;;;;;4994766;28;20026;-52
2024/02/27 09:37:33;;;;;;;18.20;12.05;;;10.60;99.90;;;;;;5004135;28;20022;-51
2024/02/27 09:39:58;;;;;;;19.38;11.70;;;11.10;99.90;;;;;;5014854;28;20398;-52
2024/02/27 09:42:24;;;;;;;16.88;12.02;;;11.00;99.90;;;;;;5014651;28;20028;-53
2024/02/27 09:44:54;;;;;;;18.35;11.93;;;10.90;99.90;;;;;;5014678;28;20509;-55
2024/02/27 09:47:20;;;;;;;18.17;12.75;;;10.70;99.90;;;;;;5014633;28;20026;-54
2024/02/27 09:49:48;;;;;;;18.17;12.35;;;10.10;99.90;;;;;;5014848;28;20029;-52
2024/02/27 09:52:15;;;;;;;15.73;11.85;;;9.90;99.90;;;;;;5006681;28;20156;-55
2024/02/27 09:54:42;;;;;;;24.58;13.68;;;9.70;99.90;;;;;;4994857;28;20026;-56
2024/02/27 09:57:08;;;;;;;18.20;12.98;;;9.50;99.90;;;;;;4995582;28;20061;-55
2024/02/27 09:59:34;;;;;;;20.88;12.25;;;9.80;99.90;;;;;;4994714;28;20101;-54
2024/02/27 10:02:12;;;;;;;15.80;11.23;;;10.30;99.90;;;;;;5010047;28;20241;-56
2024/02/27 10:04:38;;;;;;;16.63;10.52;;;11.10;99.90;;;;;;5014185;28;20030;-52
2024/02/27 10:07:05;;;;;;;17.65;11.82;;;11.60;99.90;;;;;;5014240;28;20132;-53
2024/02/27 10:09:43;;;;;;;14.18;10.85;;;11.70;99.90;;;;;;5014134;28;20401;-53
2024/02/27 10:12:11;;;;;;;14.70;10.13;;;11.90;99.90;;;;;;5014221;28;20057;-54
2024/02/27 10:14:40;;;;;;;19.38;11.25;;;11.80;99.90;;;;;;5014067;28;20022;-51
2024/02/27 10:17:06;;;;;;;18.23;10.20;;;11.70;99.90;;;;;;5003592;28;20548;-57
2024/02/27 10:19:33;;;;;;;12.90;10.25;;;12.10;99.90;;;;;;5013053;28;20034;-64
2024/02/27 10:22:00;;;;;;;20.70;13.52;;;12.10;99.90;;;;;;5008425;28;20022;-52
2024/02/27 10:24:29;;;;;;;22.00;14.77;;;12.10;99.90;;;;;;4993087;28;20122;-51
2024/02/27 10:26:56;;;;;;;32.08;18.98;;;11.90;99.90;;;;;;4998808;28;20033;-50
2024/02/27 10:29:23;;;;;;;16.85;11.75;;;11.90;99.90;;;;;;5013790;28;20494;-57
2024/02/27 10:31:50;;;;;;;12.45;10.07;;;12.00;99.90;;;;;;5013518;28;20108;-55
2024/02/27 10:34:16;;;;;;;16.27;11.57;;;12.00;99.90;;;;;;5001734;28;20023;-54
2024/02/27 10:36:42;;;;;;;17.90;11.18;;;11.50;99.90;;;;;;4992716;28;20027;-56
2024/02/27 10:39:11;;;;;;;18.40;11.38;;;11.00;99.90;;;;;;5012828;28;20030;-55
2024/02/27 10:41:40;;;;;;;15.98;11.43;;;10.90;99.90;;;;;;5014820;28;20028;-51
2024/02/27 10:44:08;;;;;;;17.08;11.68;;;11.00;99.90;;;;;;5025227;28;20160;-49
2024/02/27 10:46:36;;;;;;;18.55;10.40;;;11.00;99.90;;;;;;5010451;28;20022;-45
2024/02/27 10:49:03;;;;;;;14.80;10.38;;;11.20;99.90;;;;;;5013068;28;20030;-50
2024/02/27 10:51:30;;;;;;;17.20;11.48;;;11.20;99.90;;;;;;4995936;28;20146;-51
2024/02/27 10:53:59;;;;;;;16.92;11.43;;;11.30;99.90;;;;;;5004945;28;20030;-55
2024/02/27 10:56:26;;;;;;;19.83;11.15;;;11.50;99.90;;;;;;5026020;28;20120;-47
2024/02/27 10:58:52;;;;;;;18.65;10.50;;;11.30;99.90;;;;;;5012792;28;20030;-53
2024/02/27 11:01:18;;;;;;;13.85;10.75;;;11.50;99.90;;;;;;5010682;28;20097;-56
2024/02/27 11:03:52;;;;;;;14.98;10.75;;;11.40;99.90;;;;;;4997680;28;20581;-55
2024/02/27 11:06:23;;;;;;;11.80;9.52;;;11.50;99.90;;;;;;4991226;28;20026;-58
2024/02/27 11:09:07;;;;;;;13.57;10.00;;;11.70;99.90;;;;;;5011287;28;20022;-53
2024/02/27 11:11:35;;;;;;;16.55;10.45;;;11.50;99.90;;;;;;5011632;28;20042;-50
2024/02/27 11:14:05;;;;;;;12.50;9.68;;;11.50;99.90;;;;;;5012439;28;20038;-48
2024/02/27 11:16:32;;;;;;;15.52;11.73;;;11.60;99.90;;;;;;5011181;28;20379;-52
2024/02/27 11:19:04;;;;;;;16.80;11.27;;;11.40;99.90;;;;;;5007361;28;20113;-51
2024/02/27 11:21:29;;;;;;;14.07;10.57;;;11.40;99.90;;;;;;5010154;28;20484;-48
2024/02/27 11:23:55;;;;;;;16.00;10.98;;;11.30;99.90;;;;;;5012394;28;20025;-51
2024/02/27 11:26:21;;;;;;;13.88;10.35;;;11.10;99.90;;;;;;5012040;28;20018;-54
2024/02/27 11:28:48;;;;;;;16.98;9.98;;;11.10;99.90;;;;;;5012116;28;20026;-51
2024/02/27 11:31:16;;;;;;;15.48;11.43;;;11.10;99.90;;;;;;5012282;28;20025;-52
2024/02/27 11:33:51;;;;;;;14.82;10.70;;;11.20;99.90;;;;;;5012025;28;20148;-54
2024/02/27 11:36:16;;;;;;;13.65;10.20;;;11.30;99.90;;;;;;5011747;28;20559;-49
2024/02/27 11:38:43;;;;;;;13.88;9.63;;;11.10;99.90;;;;;;5012343;28;20030;-53
2024/02/27 11:41:17;;;;;;;14.73;11.40;;;11.30;99.90;;;;;;5012557;28;20096;-50
2024/02/27 11:43:46;;;;;;;14.85;9.98;;;11.10;99.90;;;;;;5010393;28;20018;-51
2024/02/27 11:46:27;;;;;;;14.80;10.82;;;11.10;99.90;;;;;;5009613;28;20152;-46
2024/02/27 11:48:53;;;;;;;15.80;11.05;;;11.00;99.90;;;;;;5001920;28;20044;-47
2024/02/27 11:51:20;;;;;;;14.68;10.32;;;11.10;99.90;;;;;;4997487;28;20026;-46
2024/02/27 11:53:45;;;;;;;17.73;11.15;;;11.10;99.90;;;;;;5011442;28;20120;-50
2024/02/27 11:56:12;;;;;;;16.60;11.48;;;11.20;99.90;;;;;;5010516;28;20064;-46
2024/02/27 11:58:38;;;;;;;16.17;10.73;;;11.10;99.90;;;;;;5011883;28;20026;-45
2024/02/27 12:01:05;;;;;;;13.93;10.52;;;11.10;99.90;;;;;;5003794;28;20034;-44
2024/02/27 12:03:30;;;;;;;16.08;10.43;;;11.20;99.90;;;;;;4999081;28;20068;-44
2024/02/27 12:06:03;;;;;;;19.83;11.40;;;11.10;99.90;;;;;;5012619;28;20037;-46
2024/02/27 12:08:30;;;;;;;14.85;10.55;;;11.10;99.90;;;;;;5012066;28;20018;-47
2024/02/27 12:10:56;;;;;;;16.60;9.57;;;11.10;99.90;;;;;;5012179;28;20088;-50
2024/02/27 12:13:21;;;;;;;15.30;10.05;;;11.20;99.90;;;;;;5012622;28;20030;-51
2024/02/27 12:15:57;;;;;;;14.90;10.77;;;11.30;99.90;;;;;;4994181;28;20034;-48
2024/02/27 12:18:24;;;;;;;16.95;11.05;;;11.20;99.90;;;;;;5010937;28;20045;-50
2024/02/27 12:20:54;;;;;;;16.52;11.82;;;11.20;99.90;;;;;;5010869;28;20089;-48
2024/02/27 12:23:20;;;;;;;17.23;11.30;;;11.00;99.90;;;;;;5012041;28;20109;-45
2024/02/27 12:25:46;;;;;;;15.35;11.75;;;11.00;99.90;;;;;;5011859;28;20313;-46
2024/02/27 12:28:12;;;;;;;25.95;18.23;;;11.00;99.90;;;;;;5011666;28;20481;-48
2024/02/27 12:30:43;;;;;;;16.40;10.98;;;11.10;99.90;;;;;;5012395;28;20037;-51
2024/02/27 12:33:08;;;;;;;15.82;10.73;;;11.10;99.90;;;;;;5006652;28;20092;-51